sensor_id;sensor_type;location;lat;lon;timestamp;P1;durP1;ratioP1;P2;durP2;ratioP2
51272;SDS011;37345;59.828;30.328;2022-08-11T00:01:34;7.22;;;3.00;;
51272;SDS011;37345;59.828;30.328;2022-08-11T00:04:02;4.87;;;2.90;;
51272;SDS011;37345;59.828;30.328;2022-08-11T00:06:36;5.30;;;2.80;;
51272;SDS011;37345;59.828;30.328;2022-08-11T00:09:03;6.83;;;2.77;;
51272;SDS011;37345;59.828;30.328;2022-08-11T00:11:37;7.68;;;2.72;;
51272;SDS011;37345;59.828;30.328;2022-08-11T00:14:12;4.63;;;3.05;;
51272;SDS011;37345;59.828;30.328;2022-08-11T00:16:39;4.10;;;2.47;;
51272;SDS011;37345;59.828;30.328;2022-08-11T00:19:06;4.72;;;2.80;;
51272;SDS011;37345;59.828;30.328;2022-08-11T00:21:37;5.45;;;2.58;;
51272;SDS011;37345;59.828;30.328;2022-08-11T00:24:05;3.03;;;2.50;;
51272;SDS011;37345;59.828;30.328;2022-08-11T00:26:32;8.77;;;2.77;;
51272;SDS011;37345;59.828;30.328;2022-08-11T00:29:07;5.15;;;2.22;;
51272;SDS011;37345;59.828;30.328;2022-08-11T00:31:33;3.58;;;2.10;;
51272;SDS011;37345;59.828;30.328;2022-08-11T00:34:00;4.30;;;2.25;;
51272;SDS011;37345;59.828;30.328;2022-08-11T00:36:28;6.85;;;2.50;;
51272;SDS011;37345;59.828;30.328;2022-08-11T00:39:02;6.70;;;2.60;;
51272;SDS011;37345;59.828;30.328;2022-08-11T00:41:33;3.97;;;2.50;;
51272;SDS011;37345;59.828;30.328;2022-08-11T00:46:50;6.55;;;2.97;;
51272;SDS011;37345;59.828;30.328;2022-08-11T00:55:02;4.90;;;2.97;;
51272;SDS011;37345;59.828;30.328;2022-08-11T01:00:16;3.90;;;2.63;;
51272;SDS011;37345;59.828;30.328;2022-08-11T01:10:10;6.38;;;2.70;;
51272;SDS011;37345;59.828;30.328;2022-08-11T01:12:48;4.60;;;2.40;;
51272;SDS011;37345;59.828;30.328;2022-08-11T01:41:51;4.35;;;1.60;;
51272;SDS011;37345;59.828;30.328;2022-08-11T01:47:26;4.88;;;1.70;;
51272;SDS011;37345;59.828;30.328;2022-08-11T01:50:15;4.78;;;1.80;;
51272;SDS011;37345;59.828;30.328;2022-08-11T01:55:17;3.03;;;1.83;;
51272;SDS011;37345;59.828;30.328;2022-08-11T01:58:30;5.95;;;2.00;;
51272;SDS011;37345;59.828;30.328;2022-08-11T02:00:40;3.80;;;2.35;;
51272;SDS011;37345;59.828;30.328;2022-08-11T02:25:02;4.93;;;1.58;;
51272;SDS011;37345;59.828;30.328;2022-08-11T02:27:37;5.13;;;1.40;;
51272;SDS011;37345;59.828;30.328;2022-08-11T02:30:07;4.50;;;1.75;;
51272;SDS011;37345;59.828;30.328;2022-08-11T02:32:55;3.20;;;1.70;;
51272;SDS011;37345;59.828;30.328;2022-08-11T02:46:00;3.15;;;1.48;;
51272;SDS011;37345;59.828;30.328;2022-08-11T02:54:13;2.45;;;1.20;;
51272;SDS011;37345;59.828;30.328;2022-08-11T02:56:51;4.07;;;1.92;;
51272;SDS011;37345;59.828;30.328;2022-08-11T02:59:27;2.33;;;1.17;;
51272;SDS011;37345;59.828;30.328;2022-08-11T03:12:56;3.30;;;1.27;;
51272;SDS011;37345;59.828;30.328;2022-08-11T03:18:55;2.08;;;0.82;;
51272;SDS011;37345;59.828;30.328;2022-08-11T03:27:29;3.40;;;0.98;;
51272;SDS011;37345;59.828;30.328;2022-08-11T03:30:05;1.95;;;0.80;;
51272;SDS011;37345;59.828;30.328;2022-08-11T03:35:32;2.03;;;1.08;;
51272;SDS011;37345;59.828;30.328;2022-08-11T03:38:02;0.90;;;0.82;;
51272;SDS011;37345;59.828;30.328;2022-08-11T03:40:42;2.80;;;0.90;;
51272;SDS011;37345;59.828;30.328;2022-08-11T03:43:36;2.10;;;1.00;;
51272;SDS011;37345;59.828;30.328;2022-08-11T03:46:15;1.43;;;0.77;;
51272;SDS011;37345;59.828;30.328;2022-08-11T04:12:10;4.27;;;1.00;;
51272;SDS011;37345;59.828;30.328;2022-08-11T04:14:46;5.40;;;1.33;;
51272;SDS011;37345;59.828;30.328;2022-08-11T04:17:59;3.28;;;1.20;;
51272;SDS011;37345;59.828;30.328;2022-08-11T04:20:28;2.97;;;1.55;;
51272;SDS011;37345;59.828;30.328;2022-08-11T04:39:31;5.25;;;2.08;;
51272;SDS011;37345;59.828;30.328;2022-08-11T04:41:54;4.93;;;1.80;;
51272;SDS011;37345;59.828;30.328;2022-08-11T04:47:43;3.25;;;1.58;;
51272;SDS011;37345;59.828;30.328;2022-08-11T04:50:36;4.55;;;1.70;;
51272;SDS011;37345;59.828;30.328;2022-08-11T04:53:33;1.95;;;1.30;;
51272;SDS011;37345;59.828;30.328;2022-08-11T04:56:26;3.88;;;1.60;;
51272;SDS011;37345;59.828;30.328;2022-08-11T05:13:03;3.40;;;1.60;;
51272;SDS011;37345;59.828;30.328;2022-08-11T05:15:53;5.32;;;1.25;;
51272;SDS011;37345;59.828;30.328;2022-08-11T05:18:46;4.20;;;1.52;;
51272;SDS011;37345;59.828;30.328;2022-08-11T05:21:32;3.92;;;1.42;;
51272;SDS011;37345;59.828;30.328;2022-08-11T05:24:19;2.50;;;1.13;;
51272;SDS011;37345;59.828;30.328;2022-08-11T05:27:06;6.07;;;1.40;;
51272;SDS011;37345;59.828;30.328;2022-08-11T05:32:37;9.45;;;0.98;;
51272;SDS011;37345;59.828;30.328;2022-08-11T05:35:28;2.45;;;1.10;;
51272;SDS011;37345;59.828;30.328;2022-08-11T05:37:56;2.25;;;0.93;;
51272;SDS011;37345;59.828;30.328;2022-08-11T05:40:48;2.10;;;0.90;;
51272;SDS011;37345;59.828;30.328;2022-08-11T05:43:33;3.53;;;1.23;;
51272;SDS011;37345;59.828;30.328;2022-08-11T05:46:23;3.17;;;0.90;;
51272;SDS011;37345;59.828;30.328;2022-08-11T05:49:08;3.72;;;0.95;;
51272;SDS011;37345;59.828;30.328;2022-08-11T05:51:53;2.78;;;0.70;;
51272;SDS011;37345;59.828;30.328;2022-08-11T05:54:39;5.53;;;1.30;;
51272;SDS011;37345;59.828;30.328;2022-08-11T05:57:26;4.20;;;1.17;;
51272;SDS011;37345;59.828;30.328;2022-08-11T05:59:58;3.90;;;1.27;;
51272;SDS011;37345;59.828;30.328;2022-08-11T06:02:24;4.13;;;1.42;;
51272;SDS011;37345;59.828;30.328;2022-08-11T06:04:56;5.82;;;1.20;;
51272;SDS011;37345;59.828;30.328;2022-08-11T06:07:26;3.03;;;1.30;;
51272;SDS011;37345;59.828;30.328;2022-08-11T06:09:53;4.53;;;1.10;;
51272;SDS011;37345;59.828;30.328;2022-08-11T06:12:29;4.22;;;1.05;;
51272;SDS011;37345;59.828;30.328;2022-08-11T06:14:57;5.85;;;1.30;;
51272;SDS011;37345;59.828;30.328;2022-08-11T06:17:27;6.30;;;1.15;;
51272;SDS011;37345;59.828;30.328;2022-08-11T06:20:02;3.07;;;0.93;;
51272;SDS011;37345;59.828;30.328;2022-08-11T06:22:29;4.40;;;1.20;;
51272;SDS011;37345;59.828;30.328;2022-08-11T06:25:00;2.13;;;0.82;;
51272;SDS011;37345;59.828;30.328;2022-08-11T06:27:32;4.88;;;0.80;;
51272;SDS011;37345;59.828;30.328;2022-08-11T06:29:59;2.38;;;0.90;;
51272;SDS011;37345;59.828;30.328;2022-08-11T06:32:27;2.88;;;0.90;;
51272;SDS011;37345;59.828;30.328;2022-08-11T06:40:22;2.65;;;1.08;;
51272;SDS011;37345;59.828;30.328;2022-08-11T06:45:39;2.25;;;0.75;;
51272;SDS011;37345;59.828;30.328;2022-08-11T06:48:16;1.35;;;0.77;;
51272;SDS011;37345;59.828;30.328;2022-08-11T06:50:55;3.25;;;0.80;;
51272;SDS011;37345;59.828;30.328;2022-08-11T06:54:10;3.60;;;0.90;;
51272;SDS011;37345;59.828;30.328;2022-08-11T06:56:35;3.30;;;0.80;;
51272;SDS011;37345;59.828;30.328;2022-08-11T06:59:20;4.03;;;1.30;;
51272;SDS011;37345;59.828;30.328;2022-08-11T07:02:09;2.38;;;0.70;;
51272;SDS011;37345;59.828;30.328;2022-08-11T07:07:17;1.15;;;0.60;;
51272;SDS011;37345;59.828;30.328;2022-08-11T07:10:11;1.00;;;0.82;;
51272;SDS011;37345;59.828;30.328;2022-08-11T07:13:02;2.40;;;0.80;;
51272;SDS011;37345;59.828;30.328;2022-08-11T07:15:47;4.20;;;0.70;;
51272;SDS011;37345;59.828;30.328;2022-08-11T07:18:19;4.07;;;1.00;;
51272;SDS011;37345;59.828;30.328;2022-08-11T07:21:12;1.30;;;0.82;;
51272;SDS011;37345;59.828;30.328;2022-08-11T07:23:58;3.30;;;1.00;;
51272;SDS011;37345;59.828;30.328;2022-08-11T07:26:44;2.10;;;0.80;;
51272;SDS011;37345;59.828;30.328;2022-08-11T07:29:31;1.42;;;0.70;;
51272;SDS011;37345;59.828;30.328;2022-08-11T07:31:58;5.72;;;1.02;;
51272;SDS011;37345;59.828;30.328;2022-08-11T07:34:34;3.50;;;0.90;;
51272;SDS011;37345;59.828;30.328;2022-08-11T07:37:08;2.03;;;0.80;;
51272;SDS011;37345;59.828;30.328;2022-08-11T07:39:36;2.33;;;0.95;;
51272;SDS011;37345;59.828;30.328;2022-08-11T07:42:07;1.17;;;0.75;;
51272;SDS011;37345;59.828;30.328;2022-08-11T07:44:36;1.40;;;0.85;;
51272;SDS011;37345;59.828;30.328;2022-08-11T07:47:26;3.30;;;1.30;;
51272;SDS011;37345;59.828;30.328;2022-08-11T07:50:11;3.78;;;1.23;;
51272;SDS011;37345;59.828;30.328;2022-08-11T07:52:57;1.27;;;1.00;;
51272;SDS011;37345;59.828;30.328;2022-08-11T07:55:27;2.35;;;0.98;;
51272;SDS011;37345;59.828;30.328;2022-08-11T07:57:58;3.20;;;0.88;;
51272;SDS011;37345;59.828;30.328;2022-08-11T08:01:07;2.75;;;1.77;;
51272;SDS011;37345;59.828;30.328;2022-08-11T08:03:52;2.13;;;1.30;;
51272;SDS011;37345;59.828;30.328;2022-08-11T08:06:37;3.22;;;1.10;;
51272;SDS011;37345;59.828;30.328;2022-08-11T08:09:23;1.37;;;0.80;;
51272;SDS011;37345;59.828;30.328;2022-08-11T08:12:08;3.00;;;0.95;;
51272;SDS011;37345;59.828;30.328;2022-08-11T08:14:54;2.10;;;0.93;;
51272;SDS011;37345;59.828;30.328;2022-08-11T08:17:39;2.67;;;0.60;;
51272;SDS011;37345;59.828;30.328;2022-08-11T08:20:16;3.85;;;0.80;;
51272;SDS011;37345;59.828;30.328;2022-08-11T08:22:44;3.05;;;1.33;;
51272;SDS011;37345;59.828;30.328;2022-08-11T08:25:12;2.22;;;0.77;;
51272;SDS011;37345;59.828;30.328;2022-08-11T08:27:39;3.10;;;0.85;;
51272;SDS011;37345;59.828;30.328;2022-08-11T08:30:07;1.40;;;0.80;;
51272;SDS011;37345;59.828;30.328;2022-08-11T08:32:52;4.18;;;0.60;;
51272;SDS011;37345;59.828;30.328;2022-08-11T08:35:22;4.13;;;0.90;;
51272;SDS011;37345;59.828;30.328;2022-08-11T08:37:49;0.98;;;0.70;;
51272;SDS011;37345;59.828;30.328;2022-08-11T08:40:16;4.00;;;0.75;;
51272;SDS011;37345;59.828;30.328;2022-08-11T08:42:51;1.60;;;0.70;;
51272;SDS011;37345;59.828;30.328;2022-08-11T08:45:19;0.88;;;0.80;;
51272;SDS011;37345;59.828;30.328;2022-08-11T08:47:58;1.40;;;0.63;;
51272;SDS011;37345;59.828;30.328;2022-08-11T08:50:26;1.55;;;0.80;;
51272;SDS011;37345;59.828;30.328;2022-08-11T08:53:13;3.30;;;1.00;;
51272;SDS011;37345;59.828;30.328;2022-08-11T08:55:41;1.08;;;0.70;;
51272;SDS011;37345;59.828;30.328;2022-08-11T08:58:08;0.77;;;0.57;;
51272;SDS011;37345;59.828;30.328;2022-08-11T09:00:39;0.55;;;0.55;;
51272;SDS011;37345;59.828;30.328;2022-08-11T09:03:05;2.30;;;0.88;;
51272;SDS011;37345;59.828;30.328;2022-08-11T09:05:32;3.72;;;0.82;;
51272;SDS011;37345;59.828;30.328;2022-08-11T09:07:58;1.75;;;0.85;;
51272;SDS011;37345;59.828;30.328;2022-08-11T09:10:27;3.20;;;0.90;;
51272;SDS011;37345;59.828;30.328;2022-08-11T09:12:55;2.10;;;0.80;;
51272;SDS011;37345;59.828;30.328;2022-08-11T09:15:21;0.68;;;0.57;;
51272;SDS011;37345;59.828;30.328;2022-08-11T09:17:56;1.15;;;0.80;;
51272;SDS011;37345;59.828;30.328;2022-08-11T09:20:27;1.77;;;0.82;;
51272;SDS011;37345;59.828;30.328;2022-08-11T09:22:58;1.80;;;0.98;;
51272;SDS011;37345;59.828;30.328;2022-08-11T09:25:59;0.80;;;0.70;;
51272;SDS011;37345;59.828;30.328;2022-08-11T09:28:45;1.45;;;0.80;;
51272;SDS011;37345;59.828;30.328;2022-08-11T09:31:12;2.00;;;0.77;;
51272;SDS011;37345;59.828;30.328;2022-08-11T09:33:38;2.15;;;0.90;;
51272;SDS011;37345;59.828;30.328;2022-08-11T09:36:05;1.45;;;0.90;;
51272;SDS011;37345;59.828;30.328;2022-08-11T09:38:51;1.70;;;0.90;;
51272;SDS011;37345;59.828;30.328;2022-08-11T09:41:36;4.10;;;1.15;;
51272;SDS011;37345;59.828;30.328;2022-08-11T09:44:03;3.15;;;1.60;;
51272;SDS011;37345;59.828;30.328;2022-08-11T09:46:49;2.08;;;0.98;;
51272;SDS011;37345;59.828;30.328;2022-08-11T09:49:17;4.47;;;0.90;;
51272;SDS011;37345;59.828;30.328;2022-08-11T09:51:43;1.73;;;0.82;;
51272;SDS011;37345;59.828;30.328;2022-08-11T09:54:10;2.70;;;0.80;;
51272;SDS011;37345;59.828;30.328;2022-08-11T09:56:36;1.25;;;0.88;;
51272;SDS011;37345;59.828;30.328;2022-08-11T09:59:21;2.63;;;0.90;;
51272;SDS011;37345;59.828;30.328;2022-08-11T10:01:49;1.73;;;0.87;;
51272;SDS011;37345;59.828;30.328;2022-08-11T10:04:17;0.73;;;0.70;;
51272;SDS011;37345;59.828;30.328;2022-08-11T10:06:44;3.47;;;0.90;;
51272;SDS011;37345;59.828;30.328;2022-08-11T10:12:05;4.60;;;1.20;;
51272;SDS011;37345;59.828;30.328;2022-08-11T10:14:33;2.88;;;0.90;;
51272;SDS011;37345;59.828;30.328;2022-08-11T10:17:20;1.42;;;0.80;;
51272;SDS011;37345;59.828;30.328;2022-08-11T10:19:47;1.55;;;0.90;;
51272;SDS011;37345;59.828;30.328;2022-08-11T10:22:15;3.33;;;1.10;;
51272;SDS011;37345;59.828;30.328;2022-08-11T10:25:02;5.28;;;1.20;;
51272;SDS011;37345;59.828;30.328;2022-08-11T10:27:47;3.38;;;0.90;;
51272;SDS011;37345;59.828;30.328;2022-08-11T10:30:23;1.42;;;0.90;;
51272;SDS011;37345;59.828;30.328;2022-08-11T10:33:10;3.42;;;1.00;;
51272;SDS011;37345;59.828;30.328;2022-08-11T10:35:56;1.55;;;0.75;;
51272;SDS011;37345;59.828;30.328;2022-08-11T10:38:22;2.17;;;0.80;;
51272;SDS011;37345;59.828;30.328;2022-08-11T10:40:49;2.60;;;1.05;;
51272;SDS011;37345;59.828;30.328;2022-08-11T10:43:35;3.00;;;0.95;;
51272;SDS011;37345;59.828;30.328;2022-08-11T10:46:05;2.20;;;0.90;;
51272;SDS011;37345;59.828;30.328;2022-08-11T10:48:50;8.43;;;1.20;;
51272;SDS011;37345;59.828;30.328;2022-08-11T10:51:17;2.10;;;0.80;;
51272;SDS011;37345;59.828;30.328;2022-08-11T10:53:45;3.55;;;0.77;;
51272;SDS011;37345;59.828;30.328;2022-08-11T10:56:34;2.60;;;1.05;;
51272;SDS011;37345;59.828;30.328;2022-08-11T10:59:19;1.77;;;0.90;;
51272;SDS011;37345;59.828;30.328;2022-08-11T11:01:46;2.70;;;0.90;;
51272;SDS011;37345;59.828;30.328;2022-08-11T11:04:14;1.92;;;0.73;;
51272;SDS011;37345;59.828;30.328;2022-08-11T11:09:12;3.20;;;0.80;;
51272;SDS011;37345;59.828;30.328;2022-08-11T11:11:44;3.40;;;0.98;;
51272;SDS011;37345;59.828;30.328;2022-08-11T11:14:31;0.82;;;0.43;;
51272;SDS011;37345;59.828;30.328;2022-08-11T11:17:19;3.13;;;0.65;;
51272;SDS011;37345;59.828;30.328;2022-08-11T11:19:52;2.53;;;0.60;;
51272;SDS011;37345;59.828;30.328;2022-08-11T11:22:20;1.10;;;1.00;;
51272;SDS011;37345;59.828;30.328;2022-08-11T11:25:08;3.00;;;0.70;;
51272;SDS011;37345;59.828;30.328;2022-08-11T11:30:09;3.03;;;0.80;;
51272;SDS011;37345;59.828;30.328;2022-08-11T11:35:36;3.95;;;0.60;;
51272;SDS011;37345;59.828;30.328;2022-08-11T11:38:05;1.95;;;0.60;;
51272;SDS011;37345;59.828;30.328;2022-08-11T11:40:35;1.52;;;0.57;;
51272;SDS011;37345;59.828;30.328;2022-08-11T11:43:01;1.53;;;0.50;;
51272;SDS011;37345;59.828;30.328;2022-08-11T11:45:29;3.30;;;0.63;;
51272;SDS011;37345;59.828;30.328;2022-08-11T11:47:58;2.15;;;0.50;;
51272;SDS011;37345;59.828;30.328;2022-08-11T11:50:28;2.78;;;0.63;;
51272;SDS011;37345;59.828;30.328;2022-08-11T11:52:55;1.50;;;0.47;;
51272;SDS011;37345;59.828;30.328;2022-08-11T11:55:23;0.47;;;0.40;;
51272;SDS011;37345;59.828;30.328;2022-08-11T11:57:51;2.92;;;0.60;;
51272;SDS011;37345;59.828;30.328;2022-08-11T12:00:36;1.83;;;0.63;;
51272;SDS011;37345;59.828;30.328;2022-08-11T12:03:21;2.00;;;0.80;;
51272;SDS011;37345;59.828;30.328;2022-08-11T12:05:48;1.00;;;0.43;;
51272;SDS011;37345;59.828;30.328;2022-08-11T12:08:17;2.70;;;0.50;;
51272;SDS011;37345;59.828;30.328;2022-08-11T12:10:46;1.90;;;1.08;;
51272;SDS011;37345;59.828;30.328;2022-08-11T12:13:14;2.58;;;0.50;;
51272;SDS011;37345;59.828;30.328;2022-08-11T12:16:00;1.85;;;0.30;;
51272;SDS011;37345;59.828;30.328;2022-08-11T12:18:31;2.38;;;0.65;;
51272;SDS011;37345;59.828;30.328;2022-08-11T12:21:01;3.50;;;0.70;;
51272;SDS011;37345;59.828;30.328;2022-08-11T12:23:28;2.60;;;0.60;;
51272;SDS011;37345;59.828;30.328;2022-08-11T12:26:14;0.95;;;0.40;;
51272;SDS011;37345;59.828;30.328;2022-08-11T12:28:59;1.77;;;0.68;;
51272;SDS011;37345;59.828;30.328;2022-08-11T12:31:29;3.17;;;0.68;;
51272;SDS011;37345;59.828;30.328;2022-08-11T12:33:59;0.47;;;0.40;;
51272;SDS011;37345;59.828;30.328;2022-08-11T12:36:26;0.93;;;0.53;;
51272;SDS011;37345;59.828;30.328;2022-08-11T12:38:52;1.48;;;0.50;;
51272;SDS011;37345;59.828;30.328;2022-08-11T12:41:20;3.70;;;0.60;;
51272;SDS011;37345;59.828;30.328;2022-08-11T12:44:05;2.97;;;0.60;;
51272;SDS011;37345;59.828;30.328;2022-08-11T12:47:06;0.93;;;0.50;;
51272;SDS011;37345;59.828;30.328;2022-08-11T12:49:34;2.28;;;0.50;;
51272;SDS011;37345;59.828;30.328;2022-08-11T12:52:21;0.77;;;0.40;;
51272;SDS011;37345;59.828;30.328;2022-08-11T12:54:58;0.73;;;0.55;;
51272;SDS011;37345;59.828;30.328;2022-08-11T12:57:33;2.10;;;0.60;;
51272;SDS011;37345;59.828;30.328;2022-08-11T13:00:19;1.88;;;0.80;;
51272;SDS011;37345;59.828;30.328;2022-08-11T13:03:06;5.13;;;1.00;;
51272;SDS011;37345;59.828;30.328;2022-08-11T13:05:52;3.65;;;0.85;;
51272;SDS011;37345;59.828;30.328;2022-08-11T13:08:19;0.95;;;0.73;;
51272;SDS011;37345;59.828;30.328;2022-08-11T13:10:46;1.00;;;0.60;;
51272;SDS011;37345;59.828;30.328;2022-08-11T13:13:33;2.38;;;0.60;;
51272;SDS011;37345;59.828;30.328;2022-08-11T13:15:59;1.80;;;0.60;;
51272;SDS011;37345;59.828;30.328;2022-08-11T13:18:26;3.03;;;1.52;;
51272;SDS011;37345;59.828;30.328;2022-08-11T13:20:52;1.47;;;0.80;;
51272;SDS011;37345;59.828;30.328;2022-08-11T13:23:19;0.93;;;0.50;;
51272;SDS011;37345;59.828;30.328;2022-08-11T13:25:45;1.30;;;0.50;;
51272;SDS011;37345;59.828;30.328;2022-08-11T13:28:12;0.82;;;0.55;;
51272;SDS011;37345;59.828;30.328;2022-08-11T13:30:39;1.10;;;0.50;;
51272;SDS011;37345;59.828;30.328;2022-08-11T13:33:24;1.80;;;0.50;;
51272;SDS011;37345;59.828;30.328;2022-08-11T13:35:50;1.95;;;0.60;;
51272;SDS011;37345;59.828;30.328;2022-08-11T13:38:17;1.90;;;0.43;;
51272;SDS011;37345;59.828;30.328;2022-08-11T13:40:46;1.58;;;0.60;;
51272;SDS011;37345;59.828;30.328;2022-08-11T13:43:13;2.00;;;0.60;;
51272;SDS011;37345;59.828;30.328;2022-08-11T13:45:40;1.33;;;0.60;;
51272;SDS011;37345;59.828;30.328;2022-08-11T13:48:07;0.63;;;0.35;;
51272;SDS011;37345;59.828;30.328;2022-08-11T13:50:34;1.33;;;0.52;;
51272;SDS011;37345;59.828;30.328;2022-08-11T13:53:20;2.65;;;1.08;;
51272;SDS011;37345;59.828;30.328;2022-08-11T13:55:47;1.63;;;0.50;;
51272;SDS011;37345;59.828;30.328;2022-08-11T13:58:31;3.87;;;0.60;;
51272;SDS011;37345;59.828;30.328;2022-08-11T14:00:58;1.70;;;0.93;;
51272;SDS011;37345;59.828;30.328;2022-08-11T14:03:24;3.33;;;0.50;;
51272;SDS011;37345;59.828;30.328;2022-08-11T14:05:52;3.83;;;0.88;;
51272;SDS011;37345;59.828;30.328;2022-08-11T14:08:23;1.40;;;0.70;;
51272;SDS011;37345;59.828;30.328;2022-08-11T14:10:50;1.47;;;0.80;;
51272;SDS011;37345;59.828;30.328;2022-08-11T14:13:38;3.00;;;0.60;;
51272;SDS011;37345;59.828;30.328;2022-08-11T14:16:06;1.48;;;0.50;;
51272;SDS011;37345;59.828;30.328;2022-08-11T14:18:33;6.20;;;1.23;;
51272;SDS011;37345;59.828;30.328;2022-08-11T14:21:01;1.38;;;0.80;;
51272;SDS011;37345;59.828;30.328;2022-08-11T14:23:51;2.67;;;0.70;;
51272;SDS011;37345;59.828;30.328;2022-08-11T14:26:24;2.35;;;0.70;;
51272;SDS011;37345;59.828;30.328;2022-08-11T14:31:29;1.00;;;0.50;;
51272;SDS011;37345;59.828;30.328;2022-08-11T14:33:56;2.78;;;0.60;;
51272;SDS011;37345;59.828;30.328;2022-08-11T14:36:25;1.45;;;0.75;;
51272;SDS011;37345;59.828;30.328;2022-08-11T14:38:51;1.55;;;0.63;;
51272;SDS011;37345;59.828;30.328;2022-08-11T14:41:22;2.47;;;0.77;;
51272;SDS011;37345;59.828;30.328;2022-08-11T14:47:13;1.58;;;0.90;;
51272;SDS011;37345;59.828;30.328;2022-08-11T14:49:40;4.35;;;0.57;;
51272;SDS011;37345;59.828;30.328;2022-08-11T14:52:11;2.00;;;0.55;;
51272;SDS011;37345;59.828;30.328;2022-08-11T14:54:42;2.00;;;0.68;;
51272;SDS011;37345;59.828;30.328;2022-08-11T14:57:27;3.22;;;0.68;;
51272;SDS011;37345;59.828;30.328;2022-08-11T14:59:54;1.13;;;0.57;;
51272;SDS011;37345;59.828;30.328;2022-08-11T15:02:22;1.80;;;0.65;;
51272;SDS011;37345;59.828;30.328;2022-08-11T15:05:08;1.60;;;0.75;;
51272;SDS011;37345;59.828;30.328;2022-08-11T15:07:34;2.70;;;0.82;;
51272;SDS011;37345;59.828;30.328;2022-08-11T15:10:02;5.05;;;0.88;;
51272;SDS011;37345;59.828;30.328;2022-08-11T15:12:29;2.88;;;0.80;;
51272;SDS011;37345;59.828;30.328;2022-08-11T15:14:56;2.33;;;1.02;;
51272;SDS011;37345;59.828;30.328;2022-08-11T15:17:41;3.90;;;1.17;;
51272;SDS011;37345;59.828;30.328;2022-08-11T15:20:09;2.17;;;0.90;;
51272;SDS011;37345;59.828;30.328;2022-08-11T15:22:55;2.93;;;0.93;;
51272;SDS011;37345;59.828;30.328;2022-08-11T15:25:42;2.55;;;0.90;;
51272;SDS011;37345;59.828;30.328;2022-08-11T15:28:09;2.10;;;1.00;;
51272;SDS011;37345;59.828;30.328;2022-08-11T15:30:54;2.85;;;0.90;;
51272;SDS011;37345;59.828;30.328;2022-08-11T15:33:41;1.80;;;0.98;;
51272;SDS011;37345;59.828;30.328;2022-08-11T15:36:28;3.38;;;1.05;;
51272;SDS011;37345;59.828;30.328;2022-08-11T15:41:40;4.00;;;1.27;;
51272;SDS011;37345;59.828;30.328;2022-08-11T15:44:28;3.35;;;1.10;;
51272;SDS011;37345;59.828;30.328;2022-08-11T15:47:14;2.95;;;1.30;;
51272;SDS011;37345;59.828;30.328;2022-08-11T15:49:40;3.83;;;1.10;;
51272;SDS011;37345;59.828;30.328;2022-08-11T15:52:09;1.57;;;1.10;;
51272;SDS011;37345;59.828;30.328;2022-08-11T15:54:40;3.40;;;1.02;;
51272;SDS011;37345;59.828;30.328;2022-08-11T15:57:07;3.42;;;0.95;;
51272;SDS011;37345;59.828;30.328;2022-08-11T15:59:54;2.38;;;0.80;;
51272;SDS011;37345;59.828;30.328;2022-08-11T16:02:39;4.30;;;1.00;;
51272;SDS011;37345;59.828;30.328;2022-08-11T16:05:22;1.58;;;0.73;;
51272;SDS011;37345;59.828;30.328;2022-08-11T16:07:50;6.63;;;1.10;;
51272;SDS011;37345;59.828;30.328;2022-08-11T16:10:17;1.73;;;1.27;;
51272;SDS011;37345;59.828;30.328;2022-08-11T16:12:49;1.38;;;0.90;;
51272;SDS011;37345;59.828;30.328;2022-08-11T16:15:30;1.10;;;0.80;;
51272;SDS011;37345;59.828;30.328;2022-08-11T16:18:15;3.08;;;1.13;;
51272;SDS011;37345;59.828;30.328;2022-08-11T16:20:45;1.97;;;1.00;;
51272;SDS011;37345;59.828;30.328;2022-08-11T16:23:11;3.22;;;0.90;;
51272;SDS011;37345;59.828;30.328;2022-08-11T16:25:39;3.30;;;1.20;;
51272;SDS011;37345;59.828;30.328;2022-08-11T16:28:08;2.90;;;1.03;;
51272;SDS011;37345;59.828;30.328;2022-08-11T16:30:37;3.53;;;1.30;;
51272;SDS011;37345;59.828;30.328;2022-08-11T16:33:04;3.55;;;0.90;;
51272;SDS011;37345;59.828;30.328;2022-08-11T16:35:31;4.83;;;1.73;;
51272;SDS011;37345;59.828;30.328;2022-08-11T16:38:17;2.05;;;1.30;;
51272;SDS011;37345;59.828;30.328;2022-08-11T16:41:10;2.67;;;1.20;;
51272;SDS011;37345;59.828;30.328;2022-08-11T16:43:38;3.53;;;1.50;;
51272;SDS011;37345;59.828;30.328;2022-08-11T16:46:24;3.72;;;1.60;;
51272;SDS011;37345;59.828;30.328;2022-08-11T16:49:20;4.53;;;1.27;;
51272;SDS011;37345;59.828;30.328;2022-08-11T16:51:46;2.83;;;1.43;;
51272;SDS011;37345;59.828;30.328;2022-08-11T16:54:13;4.00;;;1.30;;
51272;SDS011;37345;59.828;30.328;2022-08-11T16:59:07;2.33;;;1.40;;
51272;SDS011;37345;59.828;30.328;2022-08-11T17:01:59;2.72;;;1.17;;
51272;SDS011;37345;59.828;30.328;2022-08-11T17:04:29;4.25;;;1.05;;
51272;SDS011;37345;59.828;30.328;2022-08-11T17:07:15;3.33;;;1.40;;
51272;SDS011;37345;59.828;30.328;2022-08-11T17:10:04;4.00;;;1.20;;
51272;SDS011;37345;59.828;30.328;2022-08-11T17:12:50;1.95;;;1.23;;
51272;SDS011;37345;59.828;30.328;2022-08-11T17:15:32;5.35;;;1.63;;
51272;SDS011;37345;59.828;30.328;2022-08-11T17:18:18;3.65;;;1.60;;
51272;SDS011;37345;59.828;30.328;2022-08-11T17:23:54;3.88;;;1.40;;
51272;SDS011;37345;59.828;30.328;2022-08-11T17:26:24;3.95;;;1.10;;
51272;SDS011;37345;59.828;30.328;2022-08-11T17:28:53;2.50;;;1.20;;
51272;SDS011;37345;59.828;30.328;2022-08-11T17:31:20;5.80;;;1.70;;
51272;SDS011;37345;59.828;30.328;2022-08-11T17:34:06;7.13;;;1.92;;
51272;SDS011;37345;59.828;30.328;2022-08-11T17:36:54;5.47;;;2.03;;
51272;SDS011;37345;59.828;30.328;2022-08-11T17:39:26;5.85;;;2.30;;
51272;SDS011;37345;59.828;30.328;2022-08-11T17:41:53;4.13;;;2.30;;
51272;SDS011;37345;59.828;30.328;2022-08-11T17:44:38;5.47;;;2.15;;
51272;SDS011;37345;59.828;30.328;2022-08-11T17:47:23;6.37;;;2.17;;
51272;SDS011;37345;59.828;30.328;2022-08-11T17:50:09;2.58;;;1.80;;
51272;SDS011;37345;59.828;30.328;2022-08-11T17:52:36;7.20;;;2.30;;
51272;SDS011;37345;59.828;30.328;2022-08-11T17:55:22;4.65;;;2.20;;
51272;SDS011;37345;59.828;30.328;2022-08-11T17:58:07;5.43;;;1.80;;
51272;SDS011;37345;59.828;30.328;2022-08-11T18:00:52;3.90;;;2.00;;
51272;SDS011;37345;59.828;30.328;2022-08-11T18:03:20;4.40;;;1.55;;
51272;SDS011;37345;59.828;30.328;2022-08-11T18:06:03;3.42;;;1.35;;
51272;SDS011;37345;59.828;30.328;2022-08-11T18:08:31;4.10;;;1.50;;
51272;SDS011;37345;59.828;30.328;2022-08-11T18:11:16;3.72;;;1.38;;
51272;SDS011;37345;59.828;30.328;2022-08-11T18:14:03;7.28;;;1.98;;
51272;SDS011;37345;59.828;30.328;2022-08-11T18:16:49;7.57;;;1.83;;
51272;SDS011;37345;59.828;30.328;2022-08-11T18:19:34;4.47;;;1.40;;
51272;SDS011;37345;59.828;30.328;2022-08-11T18:22:23;14.38;;;2.63;;
51272;SDS011;37345;59.828;30.328;2022-08-11T18:25:12;5.78;;;1.98;;
51272;SDS011;37345;59.828;30.328;2022-08-11T18:27:57;7.50;;;2.00;;
51272;SDS011;37345;59.828;30.328;2022-08-11T18:30:45;4.88;;;1.50;;
51272;SDS011;37345;59.828;30.328;2022-08-11T18:33:35;4.90;;;1.33;;
51272;SDS011;37345;59.828;30.328;2022-08-11T18:36:22;4.20;;;1.50;;
51272;SDS011;37345;59.828;30.328;2022-08-11T18:39:08;4.43;;;2.17;;
51272;SDS011;37345;59.828;30.328;2022-08-11T18:41:53;5.13;;;1.88;;
51272;SDS011;37345;59.828;30.328;2022-08-11T18:45:08;2.67;;;1.40;;
51272;SDS011;37345;59.828;30.328;2022-08-11T18:47:48;4.57;;;1.40;;
51272;SDS011;37345;59.828;30.328;2022-08-11T18:50:34;2.92;;;1.40;;
51272;SDS011;37345;59.828;30.328;2022-08-11T18:53:19;2.55;;;1.20;;